Malaspina — WI6803 — position and weather

sailwx.info

Track history (hours):
 
Tides and Currents Weather Stations Pressure Air Temp Water Temp Dewpoint Dewpoint Depression Visibility Wind Speed Wind Dir Waves Ship Positions

Malaspina

Owner: ALASKA, STATE OF, ANCHORAGE, AK. More information available from US FCC via Universal Licensing System and Coast Guard Vessel Documentation Center.

Last reported at 2018-May-26 03:05 UTC. Time now 2018-May-28 09:47 UTC.
Position N 54°46' W 130°58'.

Type: Ship. MMSI: 367143000.

Date/timePositionNaut miles runAvg speedWind from/ knotsBaromVisibWave heightAir tempDewpointWater temp
2018-May-26 03:05N 54°46' W 130°58'316.0
2018-May-26 02:52N 54°44' W 130°53'716.0
2018-May-26 02:27N 54°39' W 130°46'715.3
2018-May-26 02:00N 54°33' W 130°40'815.5
2018-May-26 01:30N 54°26' W 130°37'815.7
2018-May-26 01:00N 54°18' W 130°34'815.4
2018-May-26 00:30N 54°13' W 130°24'4 8.7
2018-May-26 00:00N 54°18' W 130°22'0 0.8
2018-May-25 23:27N 54°18' W 130°21'0 0.0
2018-May-25 23:00N 54°18' W 130°21'0 0.0
2018-May-25 22:30N 54°18' W 130°21'0 0.0
2018-May-25 22:00N 54°18' W 130°21'0 0.0
2018-May-25 21:21N 54°18' W 130°21'0 0.0
2018-May-25 21:00N 54°18' W 130°21'1 1.9
2018-May-25 20:30N 54°17' W 130°22'4 7.6
2018-May-25 20:00N 54°14' W 130°26'714.9
2018-May-25 19:30N 54°19' W 130°35'815.4
2018-May-25 19:00N 54°27' W 130°37'815.7
2018-May-25 18:30N 54°34' W 130°40'815.3
2018-May-25 18:00N 54°41' W 130°48'715.3
2018-May-25 17:30N 54°46' W 130°57'  
2018-May-22 13:21N 54°45' W 130°55'616.9
2018-May-22 13:00N 54°41' W 130°49'815.8
2018-May-22 12:30N 54°35' W 130°40'816.6
2018-May-22 12:00N 54°27' W 130°37'917.3
2018-May-22 11:30N 54°18' W 130°35'917.2
2018-May-22 11:00N 54°13' W 130°23'4 8.6
2018-May-22 10:30N 54°18' W 130°22'0 0.9
2018-May-22 10:00N 54°18' W 130°21'0 0.0
2018-May-22 09:26N 54°18' W 130°21'0 0.0
2018-May-22 08:56N 54°18' W 130°21'0 0.0
2018-May-22 08:26N 54°18' W 130°21'0 0.0
2018-May-22 07:56N 54°18' W 130°21'0 0.0
2018-May-22 07:26N 54°18' W 130°21'0 0.0
2018-May-22 07:00N 54°18' W 130°21'2 4.2
2018-May-22 06:30N 54°16' W 130°21'2 3.0
2018-May-22 06:00N 54°14' W 130°21'4 8.3
2018-May-22 05:30N 54°15' W 130°28'714.4
2018-May-22 05:00N 54°20' W 130°36'714.9
2018-May-22 04:30N 54°28' W 130°38'815.9
2018-May-22 04:00N 54°35' W 130°40'916.2
2018-May-22 03:28N 54°42' W 130°51'815.7
2018-May-22 02:59N 54°48' W 130°58'  
2018-May-19 07:09N 55°17' W 131°31'315.8
2018-May-19 07:00N 55°15' W 131°27'3014.2
2018-May-19 04:53N 54°50' W 130°60'614.9
2018-May-19 04:30N 54°45' W 130°54'714.8
2018-May-19 04:00N 54°39' W 130°46'714.5
2018-May-19 03:30N 54°33' W 130°40'714.5
2018-May-19 03:00N 54°26' W 130°37'815.2
2018-May-19 02:30N 54°18' W 130°35'714.9
2018-May-19 02:01N 54°14' W 130°25'4 7.9
2018-May-19 01:30N 54°17' W 130°22'1 1.1
2018-May-19 00:43N 54°18' W 130°21'0 0.0
2018-May-19 00:28N 54°18' W 130°21'0 0.0
2018-May-18 23:58N 54°18' W 130°21'0 0.0
2018-May-18 23:28N 54°18' W 130°21'0 0.0
2018-May-18 22:58N 54°18' W 130°21'0 0.0
2018-May-18 22:28N 54°18' W 130°21'0 0.0
2018-May-18 21:55N 54°18' W 130°21'0 0.0
2018-May-18 21:26N 54°18' W 130°21'0 0.7
2018-May-18 21:00N 54°18' W 130°22'5 9.2
2018-May-18 20:31N 54°13' W 130°23'815.5
2018-May-18 20:00N 54°18' W 130°34'815.5
2018-May-18 19:30N 54°25' W 130°37'815.6
2018-May-18 19:00N 54°33' W 130°40'815.3
2018-May-18 18:30N 54°40' W 130°47'815.6
2018-May-18 18:00N 54°46' W 130°55'815.4
2018-May-18 17:30N 54°52' W 131°02'2015.3
2018-May-18 16:10N 55°11' W 131°16'715.6
2018-May-18 15:45N 55°14' W 131°26'415.4
2018-May-18 15:30N 55°17' W 131°31'  
Track history (hours):
 
Tides and Currents Weather Stations Pressure Air Temp Water Temp Dewpoint Dewpoint Depression Visibility Wind Speed Wind Dir Waves Ship Positions

Malaspina

Owner: ALASKA, STATE OF, ANCHORAGE, AK. More information available from US FCC via Universal Licensing System and Coast Guard Vessel Documentation Center.

Last reported at 2018-May-26 03:05 UTC. Time now 2018-May-28 09:47 UTC.
Position N 54°46' W 130°58'.

Type: Ship. MMSI: 367143000.

Date/timePositionNaut miles runAvg speedWind from/ knotsBaromVisibWave heightAir tempDewpointWater temp
2018-May-26 03:05N 54°46' W 130°58'316.0
2018-May-26 02:52N 54°44' W 130°53'716.0
2018-May-26 02:27N 54°39' W 130°46'715.3
2018-May-26 02:00N 54°33' W 130°40'815.5
2018-May-26 01:30N 54°26' W 130°37'815.7
2018-May-26 01:00N 54°18' W 130°34'815.4
2018-May-26 00:30N 54°13' W 130°24'4 8.7
2018-May-26 00:00N 54°18' W 130°22'0 0.8
2018-May-25 23:27N 54°18' W 130°21'0 0.0
2018-May-25 23:00N 54°18' W 130°21'0 0.0
2018-May-25 22:30N 54°18' W 130°21'0 0.0
2018-May-25 22:00N 54°18' W 130°21'0 0.0
2018-May-25 21:21N 54°18' W 130°21'0 0.0
2018-May-25 21:00N 54°18' W 130°21'1 1.9
2018-May-25 20:30N 54°17' W 130°22'4 7.6
2018-May-25 20:00N 54°14' W 130°26'714.9
2018-May-25 19:30N 54°19' W 130°35'815.4
2018-May-25 19:00N 54°27' W 130°37'815.7
2018-May-25 18:30N 54°34' W 130°40'815.3
2018-May-25 18:00N 54°41' W 130°48'715.3
2018-May-25 17:30N 54°46' W 130°57'  
2018-May-22 13:21N 54°45' W 130°55'616.9
2018-May-22 13:00N 54°41' W 130°49'815.8
2018-May-22 12:30N 54°35' W 130°40'816.6
2018-May-22 12:00N 54°27' W 130°37'917.3
2018-May-22 11:30N 54°18' W 130°35'917.2
2018-May-22 11:00N 54°13' W 130°23'4 8.6
2018-May-22 10:30N 54°18' W 130°22'0 0.9
2018-May-22 10:00N 54°18' W 130°21'0 0.0
2018-May-22 09:26N 54°18' W 130°21'0 0.0
2018-May-22 08:56N 54°18' W 130°21'0 0.0
2018-May-22 08:26N 54°18' W 130°21'0 0.0
2018-May-22 07:56N 54°18' W 130°21'0 0.0
2018-May-22 07:26N 54°18' W 130°21'0 0.0
2018-May-22 07:00N 54°18' W 130°21'2 4.2
2018-May-22 06:30N 54°16' W 130°21'2 3.0
2018-May-22 06:00N 54°14' W 130°21'4 8.3
2018-May-22 05:30N 54°15' W 130°28'714.4
2018-May-22 05:00N 54°20' W 130°36'714.9
2018-May-22 04:30N 54°28' W 130°38'815.9
2018-May-22 04:00N 54°35' W 130°40'916.2
2018-May-22 03:28N 54°42' W 130°51'815.7
2018-May-22 02:59N 54°48' W 130°58'  
2018-May-19 07:09N 55°17' W 131°31'315.8
2018-May-19 07:00N 55°15' W 131°27'3014.2
2018-May-19 04:53N 54°50' W 130°60'614.9
2018-May-19 04:30N 54°45' W 130°54'714.8
2018-May-19 04:00N 54°39' W 130°46'714.5
2018-May-19 03:30N 54°33' W 130°40'714.5
2018-May-19 03:00N 54°26' W 130°37'815.2
2018-May-19 02:30N 54°18' W 130°35'714.9
2018-May-19 02:01N 54°14' W 130°25'4 7.9
2018-May-19 01:30N 54°17' W 130°22'1 1.1
2018-May-19 00:43N 54°18' W 130°21'0 0.0
2018-May-19 00:28N 54°18' W 130°21'0 0.0
2018-May-18 23:58N 54°18' W 130°21'0 0.0
2018-May-18 23:28N 54°18' W 130°21'0 0.0
2018-May-18 22:58N 54°18' W 130°21'0 0.0
2018-May-18 22:28N 54°18' W 130°21'0 0.0
2018-May-18 21:55N 54°18' W 130°21'0 0.0
2018-May-18 21:26N 54°18' W 130°21'0 0.7
2018-May-18 21:00N 54°18' W 130°22'5 9.2
2018-May-18 20:31N 54°13' W 130°23'815.5
2018-May-18 20:00N 54°18' W 130°34'815.5
2018-May-18 19:30N 54°25' W 130°37'815.6
2018-May-18 19:00N 54°33' W 130°40'815.3
2018-May-18 18:30N 54°40' W 130°47'815.6
2018-May-18 18:00N 54°46' W 130°55'815.4
2018-May-18 17:30N 54°52' W 131°02'2015.3
2018-May-18 16:10N 55°11' W 131°16'715.6
2018-May-18 15:45N 55°14' W 131°26'415.4
2018-May-18 15:30N 55°17' W 131°31'  

Dump ship's entire track history